sensor_id;sensor_type;location;lat;lon;timestamp;temperature;humidity
27226;DHT22;14732;51.074;3.788;2023-02-15T00:01:41;4.80;99.90
27226;DHT22;14732;51.074;3.788;2023-02-15T00:04:08;4.80;99.90
27226;DHT22;14732;51.074;3.788;2023-02-15T00:06:34;4.70;99.90
27226;DHT22;14732;51.074;3.788;2023-02-15T00:09:01;4.50;99.90
27226;DHT22;14732;51.074;3.788;2023-02-15T00:11:28;4.30;99.90
27226;DHT22;14732;51.074;3.788;2023-02-15T00:14:23;4.30;99.90
27226;DHT22;14732;51.074;3.788;2023-02-15T00:16:50;4.30;99.90
27226;DHT22;14732;51.074;3.788;2023-02-15T00:19:18;4.40;99.90
27226;DHT22;14732;51.074;3.788;2023-02-15T00:21:44;4.40;99.90
27226;DHT22;14732;51.074;3.788;2023-02-15T00:24:12;4.40;99.90
27226;DHT22;14732;51.074;3.788;2023-02-15T00:26:39;4.50;99.90
27226;DHT22;14732;51.074;3.788;2023-02-15T00:29:05;4.40;99.90
27226;DHT22;14732;51.074;3.788;2023-02-15T00:31:32;4.50;99.90
27226;DHT22;14732;51.074;3.788;2023-02-15T00:34:06;4.40;99.90
27226;DHT22;14732;51.074;3.788;2023-02-15T00:36:32;4.40;99.90
27226;DHT22;14732;51.074;3.788;2023-02-15T00:38:58;4.40;99.90
27226;DHT22;14732;51.074;3.788;2023-02-15T00:41:24;4.50;99.90
27226;DHT22;14732;51.074;3.788;2023-02-15T00:43:49;4.40;99.90
27226;DHT22;14732;51.074;3.788;2023-02-15T00:46:15;4.40;99.90
27226;DHT22;14732;51.074;3.788;2023-02-15T00:48:41;4.40;99.90
27226;DHT22;14732;51.074;3.788;2023-02-15T00:51:07;4.40;99.90
27226;DHT22;14732;51.074;3.788;2023-02-15T00:53:32;4.30;99.90
27226;DHT22;14732;51.074;3.788;2023-02-15T00:55:58;4.30;99.90
27226;DHT22;14732;51.074;3.788;2023-02-15T00:58:24;4.30;99.90
27226;DHT22;14732;51.074;3.788;2023-02-15T01:00:51;4.10;99.90
27226;DHT22;14732;51.074;3.788;2023-02-15T01:03:18;4.10;99.90
27226;DHT22;14732;51.074;3.788;2023-02-15T01:05:46;4.10;99.90
27226;DHT22;14732;51.074;3.788;2023-02-15T01:08:12;4.10;99.90
27226;DHT22;14732;51.074;3.788;2023-02-15T01:10:38;4.10;99.90
27226;DHT22;14732;51.074;3.788;2023-02-15T01:13:03;4.10;99.90
27226;DHT22;14732;51.074;3.788;2023-02-15T01:15:29;4.00;99.90
27226;DHT22;14732;51.074;3.788;2023-02-15T01:17:55;4.00;99.90
27226;DHT22;14732;51.074;3.788;2023-02-15T01:20:26;3.90;99.90
27226;DHT22;14732;51.074;3.788;2023-02-15T01:22:53;3.90;99.90
27226;DHT22;14732;51.074;3.788;2023-02-15T01:25:20;3.90;99.90
27226;DHT22;14732;51.074;3.788;2023-02-15T01:27:46;3.80;99.90
27226;DHT22;14732;51.074;3.788;2023-02-15T01:30:13;3.70;99.90
27226;DHT22;14732;51.074;3.788;2023-02-15T01:32:39;3.70;99.90
27226;DHT22;14732;51.074;3.788;2023-02-15T01:35:05;3.80;99.90
27226;DHT22;14732;51.074;3.788;2023-02-15T01:37:32;3.80;99.90
27226;DHT22;14732;51.074;3.788;2023-02-15T01:39:57;3.80;99.90
27226;DHT22;14732;51.074;3.788;2023-02-15T01:42:26;3.80;99.90
27226;DHT22;14732;51.074;3.788;2023-02-15T01:44:58;3.80;99.90
27226;DHT22;14732;51.074;3.788;2023-02-15T01:47:42;3.80;99.90
27226;DHT22;14732;51.074;3.788;2023-02-15T01:50:13;3.70;99.90
27226;DHT22;14732;51.074;3.788;2023-02-15T01:52:46;3.70;99.90
27226;DHT22;14732;51.074;3.788;2023-02-15T01:55:14;3.70;99.90
27226;DHT22;14732;51.074;3.788;2023-02-15T01:57:41;3.70;99.90
27226;DHT22;14732;51.074;3.788;2023-02-15T02:00:08;3.70;99.90
27226;DHT22;14732;51.074;3.788;2023-02-15T02:02:34;3.70;99.90
27226;DHT22;14732;51.074;3.788;2023-02-15T02:05:03;3.70;99.90
27226;DHT22;14732;51.074;3.788;2023-02-15T02:07:37;3.60;99.90
27226;DHT22;14732;51.074;3.788;2023-02-15T02:10:06;3.40;99.90
27226;DHT22;14732;51.074;3.788;2023-02-15T02:12:32;3.20;99.90
27226;DHT22;14732;51.074;3.788;2023-02-15T02:14:59;3.10;99.90
27226;DHT22;14732;51.074;3.788;2023-02-15T02:34:30;3.30;99.90
27226;DHT22;14732;51.074;3.788;2023-02-15T02:37:16;3.20;99.90
27226;DHT22;14732;51.074;3.788;2023-02-15T02:42:40;3.00;99.90
27226;DHT22;14732;51.074;3.788;2023-02-15T02:45:32;2.80;99.90
27226;DHT22;14732;51.074;3.788;2023-02-15T02:48:05;2.60;99.90
27226;DHT22;14732;51.074;3.788;2023-02-15T02:50:31;2.70;99.90
27226;DHT22;14732;51.074;3.788;2023-02-15T02:52:58;2.90;99.90
27226;DHT22;14732;51.074;3.788;2023-02-15T02:55:41;3.00;99.90
27226;DHT22;14732;51.074;3.788;2023-02-15T03:00:57;3.10;99.90
27226;DHT22;14732;51.074;3.788;2023-02-15T03:03:34;3.00;99.90
27226;DHT22;14732;51.074;3.788;2023-02-15T03:06:05;3.00;99.90
27226;DHT22;14732;51.074;3.788;2023-02-15T03:08:45;2.80;99.90
27226;DHT22;14732;51.074;3.788;2023-02-15T03:11:12;2.80;99.90
27226;DHT22;14732;51.074;3.788;2023-02-15T03:13:39;2.90;99.90
27226;DHT22;14732;51.074;3.788;2023-02-15T03:16:05;2.90;99.90
27226;DHT22;14732;51.074;3.788;2023-02-15T03:19:09;2.90;99.90
27226;DHT22;14732;51.074;3.788;2023-02-15T03:22:00;2.80;99.90
27226;DHT22;14732;51.074;3.788;2023-02-15T03:24:44;2.70;99.90
27226;DHT22;14732;51.074;3.788;2023-02-15T03:27:15;2.70;99.90
27226;DHT22;14732;51.074;3.788;2023-02-15T03:29:46;2.80;99.90
27226;DHT22;14732;51.074;3.788;2023-02-15T03:32:14;2.80;99.90
27226;DHT22;14732;51.074;3.788;2023-02-15T03:34:41;2.70;99.90
27226;DHT22;14732;51.074;3.788;2023-02-15T03:37:16;2.70;99.90
27226;DHT22;14732;51.074;3.788;2023-02-15T03:45:11;2.80;99.90
27226;DHT22;14732;51.074;3.788;2023-02-15T03:47:44;2.70;99.90
27226;DHT22;14732;51.074;3.788;2023-02-15T03:50:16;2.70;99.90
27226;DHT22;14732;51.074;3.788;2023-02-15T03:53:03;2.70;99.90
27226;DHT22;14732;51.074;3.788;2023-02-15T03:55:30;2.70;99.90
27226;DHT22;14732;51.074;3.788;2023-02-15T03:57:56;2.70;99.90
27226;DHT22;14732;51.074;3.788;2023-02-15T04:00:46;2.70;99.90
27226;DHT22;14732;51.074;3.788;2023-02-15T04:03:42;2.70;99.90
27226;DHT22;14732;51.074;3.788;2023-02-15T04:06:09;2.60;99.90
27226;DHT22;14732;51.074;3.788;2023-02-15T04:08:34;2.60;99.90
27226;DHT22;14732;51.074;3.788;2023-02-15T04:11:19;2.60;99.90
27226;DHT22;14732;51.074;3.788;2023-02-15T04:13:44;2.60;99.90
27226;DHT22;14732;51.074;3.788;2023-02-15T04:16:10;2.60;99.90
27226;DHT22;14732;51.074;3.788;2023-02-15T04:18:41;2.60;99.90
27226;DHT22;14732;51.074;3.788;2023-02-15T04:21:27;2.60;99.90
27226;DHT22;14732;51.074;3.788;2023-02-15T04:24:13;2.60;99.90
27226;DHT22;14732;51.074;3.788;2023-02-15T04:26:58;2.50;99.90
27226;DHT22;14732;51.074;3.788;2023-02-15T04:29:25;2.30;99.90
27226;DHT22;14732;51.074;3.788;2023-02-15T04:31:52;2.30;99.90
27226;DHT22;14732;51.074;3.788;2023-02-15T04:34:18;2.40;99.90
27226;DHT22;14732;51.074;3.788;2023-02-15T04:36:44;2.50;99.90
27226;DHT22;14732;51.074;3.788;2023-02-15T04:39:12;2.50;99.90
27226;DHT22;14732;51.074;3.788;2023-02-15T04:41:39;2.40;99.90
27226;DHT22;14732;51.074;3.788;2023-02-15T04:44:04;2.40;99.90
27226;DHT22;14732;51.074;3.788;2023-02-15T04:46:30;2.50;99.90
27226;DHT22;14732;51.074;3.788;2023-02-15T04:48:56;2.50;99.90
27226;DHT22;14732;51.074;3.788;2023-02-15T04:51:22;2.40;99.90
27226;DHT22;14732;51.074;3.788;2023-02-15T04:53:48;2.30;99.90
27226;DHT22;14732;51.074;3.788;2023-02-15T04:56:13;2.40;99.90
27226;DHT22;14732;51.074;3.788;2023-02-15T04:58:39;2.40;99.90
27226;DHT22;14732;51.074;3.788;2023-02-15T05:01:08;2.40;99.90
27226;DHT22;14732;51.074;3.788;2023-02-15T05:03:34;2.40;99.90
27226;DHT22;14732;51.074;3.788;2023-02-15T05:06:00;2.40;99.90
27226;DHT22;14732;51.074;3.788;2023-02-15T05:08:26;2.30;99.90
27226;DHT22;14732;51.074;3.788;2023-02-15T05:10:52;2.30;99.90
27226;DHT22;14732;51.074;3.788;2023-02-15T05:13:17;2.30;99.90
27226;DHT22;14732;51.074;3.788;2023-02-15T05:15:48;2.30;99.90
27226;DHT22;14732;51.074;3.788;2023-02-15T05:18:14;2.40;99.90
27226;DHT22;14732;51.074;3.788;2023-02-15T05:20:40;2.40;99.90
27226;DHT22;14732;51.074;3.788;2023-02-15T05:23:06;2.40;99.90
27226;DHT22;14732;51.074;3.788;2023-02-15T05:25:31;2.30;99.90
27226;DHT22;14732;51.074;3.788;2023-02-15T05:28:15;2.20;99.90
27226;DHT22;14732;51.074;3.788;2023-02-15T05:30:56;2.20;99.90
27226;DHT22;14732;51.074;3.788;2023-02-15T05:33:24;2.20;99.90
27226;DHT22;14732;51.074;3.788;2023-02-15T05:35:50;2.20;99.90
27226;DHT22;14732;51.074;3.788;2023-02-15T05:38:16;2.20;99.90
27226;DHT22;14732;51.074;3.788;2023-02-15T05:40:42;2.30;99.90
27226;DHT22;14732;51.074;3.788;2023-02-15T05:43:07;2.20;99.90
27226;DHT22;14732;51.074;3.788;2023-02-15T05:45:33;2.20;99.90
27226;DHT22;14732;51.074;3.788;2023-02-15T05:47:59;2.20;99.90
27226;DHT22;14732;51.074;3.788;2023-02-15T05:50:25;2.20;99.90
27226;DHT22;14732;51.074;3.788;2023-02-15T05:52:52;2.20;99.90
27226;DHT22;14732;51.074;3.788;2023-02-15T05:55:18;2.20;99.90
27226;DHT22;14732;51.074;3.788;2023-02-15T05:57:43;2.20;99.90
27226;DHT22;14732;51.074;3.788;2023-02-15T06:00:10;2.10;99.90
27226;DHT22;14732;51.074;3.788;2023-02-15T06:02:37;2.20;99.90
27226;DHT22;14732;51.074;3.788;2023-02-15T06:05:03;2.30;99.90
27226;DHT22;14732;51.074;3.788;2023-02-15T06:07:29;2.20;99.90
27226;DHT22;14732;51.074;3.788;2023-02-15T06:09:55;2.20;99.90
27226;DHT22;14732;51.074;3.788;2023-02-15T06:12:21;2.20;99.90
27226;DHT22;14732;51.074;3.788;2023-02-15T06:14:46;2.10;99.90
27226;DHT22;14732;51.074;3.788;2023-02-15T06:17:12;2.20;99.90
27226;DHT22;14732;51.074;3.788;2023-02-15T06:19:38;2.10;99.90
27226;DHT22;14732;51.074;3.788;2023-02-15T06:22:03;2.10;99.90
27226;DHT22;14732;51.074;3.788;2023-02-15T06:24:29;2.00;99.90
27226;DHT22;14732;51.074;3.788;2023-02-15T06:26:54;2.00;99.90
27226;DHT22;14732;51.074;3.788;2023-02-15T06:29:20;2.00;99.90
27226;DHT22;14732;51.074;3.788;2023-02-15T06:31:46;2.00;99.90
27226;DHT22;14732;51.074;3.788;2023-02-15T06:34:11;2.00;99.90
27226;DHT22;14732;51.074;3.788;2023-02-15T06:36:37;2.00;99.90
27226;DHT22;14732;51.074;3.788;2023-02-15T06:39:03;2.10;99.90
27226;DHT22;14732;51.074;3.788;2023-02-15T06:41:30;2.00;99.90
27226;DHT22;14732;51.074;3.788;2023-02-15T06:43:55;1.90;99.90
27226;DHT22;14732;51.074;3.788;2023-02-15T06:46:21;1.90;99.90
27226;DHT22;14732;51.074;3.788;2023-02-15T06:48:47;2.00;99.90
27226;DHT22;14732;51.074;3.788;2023-02-15T06:51:12;2.00;99.90
27226;DHT22;14732;51.074;3.788;2023-02-15T06:53:38;2.00;99.90
27226;DHT22;14732;51.074;3.788;2023-02-15T06:56:07;2.10;99.90
27226;DHT22;14732;51.074;3.788;2023-02-15T06:58:38;2.20;99.90
27226;DHT22;14732;51.074;3.788;2023-02-15T07:01:04;2.10;99.90
27226;DHT22;14732;51.074;3.788;2023-02-15T07:03:31;2.00;99.90
27226;DHT22;14732;51.074;3.788;2023-02-15T07:05:58;2.00;99.90
27226;DHT22;14732;51.074;3.788;2023-02-15T07:08:25;2.10;99.90
27226;DHT22;14732;51.074;3.788;2023-02-15T07:10:52;2.20;99.90
27226;DHT22;14732;51.074;3.788;2023-02-15T07:13:18;2.20;99.90
27226;DHT22;14732;51.074;3.788;2023-02-15T07:15:45;2.30;99.90
27226;DHT22;14732;51.074;3.788;2023-02-15T07:18:11;2.30;99.90
27226;DHT22;14732;51.074;3.788;2023-02-15T07:20:37;2.40;99.90
27226;DHT22;14732;51.074;3.788;2023-02-15T07:23:04;2.50;99.90
27226;DHT22;14732;51.074;3.788;2023-02-15T07:25:30;2.50;99.90
27226;DHT22;14732;51.074;3.788;2023-02-15T07:28:02;2.50;99.90
27226;DHT22;14732;51.074;3.788;2023-02-15T07:30:28;2.60;99.90
27226;DHT22;14732;51.074;3.788;2023-02-15T07:32:58;2.60;99.90
27226;DHT22;14732;51.074;3.788;2023-02-15T07:35:57;2.70;99.90
27226;DHT22;14732;51.074;3.788;2023-02-15T07:38:32;2.90;99.90
27226;DHT22;14732;51.074;3.788;2023-02-15T07:41:03;3.00;99.90
27226;DHT22;14732;51.074;3.788;2023-02-15T07:43:30;3.20;99.90
27226;DHT22;14732;51.074;3.788;2023-02-15T07:46:04;3.40;99.90
27226;DHT22;14732;51.074;3.788;2023-02-15T07:48:30;3.70;99.90
27226;DHT22;14732;51.074;3.788;2023-02-15T07:51:01;4.30;99.90
27226;DHT22;14732;51.074;3.788;2023-02-15T07:53:26;5.00;99.90
27226;DHT22;14732;51.074;3.788;2023-02-15T07:55:52;5.70;99.90
27226;DHT22;14732;51.074;3.788;2023-02-15T07:58:19;6.10;99.90
27226;DHT22;14732;51.074;3.788;2023-02-15T08:00:44;6.30;99.90
27226;DHT22;14732;51.074;3.788;2023-02-15T08:03:26;6.50;99.90
27226;DHT22;14732;51.074;3.788;2023-02-15T08:05:56;6.90;99.90
27226;DHT22;14732;51.074;3.788;2023-02-15T08:08:23;7.20;99.90
27226;DHT22;14732;51.074;3.788;2023-02-15T08:14:02;8.20;99.90
27226;DHT22;14732;51.074;3.788;2023-02-15T08:19:16;9.70;99.90
27226;DHT22;14732;51.074;3.788;2023-02-15T08:21:44;10.40;99.90
27226;DHT22;14732;51.074;3.788;2023-02-15T08:24:12;11.10;99.90
27226;DHT22;14732;51.074;3.788;2023-02-15T08:26:39;11.80;99.90
27226;DHT22;14732;51.074;3.788;2023-02-15T08:29:05;12.60;99.90
27226;DHT22;14732;51.074;3.788;2023-02-15T08:31:32;13.10;99.90
27226;DHT22;14732;51.074;3.788;2023-02-15T08:33:58;13.50;99.90
27226;DHT22;14732;51.074;3.788;2023-02-15T08:36:27;13.80;99.90
27226;DHT22;14732;51.074;3.788;2023-02-15T08:38:53;13.70;99.90
27226;DHT22;14732;51.074;3.788;2023-02-15T08:41:23;13.50;99.90
27226;DHT22;14732;51.074;3.788;2023-02-15T08:43:52;13.40;99.90
27226;DHT22;14732;51.074;3.788;2023-02-15T08:46:20;13.30;99.90
27226;DHT22;14732;51.074;3.788;2023-02-15T08:48:46;13.30;99.90
27226;DHT22;14732;51.074;3.788;2023-02-15T08:51:17;13.80;99.90
27226;DHT22;14732;51.074;3.788;2023-02-15T08:53:45;14.80;99.90
27226;DHT22;14732;51.074;3.788;2023-02-15T08:56:11;15.60;99.90
27226;DHT22;14732;51.074;3.788;2023-02-15T08:58:38;16.20;99.90
27226;DHT22;14732;51.074;3.788;2023-02-15T09:01:14;16.70;99.90
27226;DHT22;14732;51.074;3.788;2023-02-15T09:03:44;17.20;99.90
27226;DHT22;14732;51.074;3.788;2023-02-15T09:06:10;17.90;99.90
27226;DHT22;14732;51.074;3.788;2023-02-15T09:08:36;18.70;99.90
27226;DHT22;14732;51.074;3.788;2023-02-15T09:11:21;19.40;99.90
27226;DHT22;14732;51.074;3.788;2023-02-15T09:13:54;20.10;99.90
27226;DHT22;14732;51.074;3.788;2023-02-15T09:16:21;20.10;99.90
27226;DHT22;14732;51.074;3.788;2023-02-15T09:18:48;19.50;99.90
27226;DHT22;14732;51.074;3.788;2023-02-15T09:21:16;18.80;99.90
27226;DHT22;14732;51.074;3.788;2023-02-15T09:23:43;18.70;99.90
27226;DHT22;14732;51.074;3.788;2023-02-15T09:26:12;19.40;99.90
27226;DHT22;14732;51.074;3.788;2023-02-15T09:28:38;20.30;99.90
27226;DHT22;14732;51.074;3.788;2023-02-15T09:31:12;21.20;99.90
27226;DHT22;14732;51.074;3.788;2023-02-15T09:33:39;21.60;99.90
27226;DHT22;14732;51.074;3.788;2023-02-15T09:36:20;22.80;98.20
27226;DHT22;14732;51.074;3.788;2023-02-15T09:38:47;23.80;95.80
27226;DHT22;14732;51.074;3.788;2023-02-15T09:44:11;24.50;91.70
27226;DHT22;14732;51.074;3.788;2023-02-15T09:46:42;23.90;91.10
27226;DHT22;14732;51.074;3.788;2023-02-15T10:03:07;16.10;99.60
27226;DHT22;14732;51.074;3.788;2023-02-15T10:11:23;13.70;99.90
27226;DHT22;14732;51.074;3.788;2023-02-15T10:25:46;12.10;99.90
27226;DHT22;14732;51.074;3.788;2023-02-15T10:28:18;11.80;99.90
27226;DHT22;14732;51.074;3.788;2023-02-15T10:30:49;11.70;99.90
27226;DHT22;14732;51.074;3.788;2023-02-15T10:33:38;11.70;99.90
27226;DHT22;14732;51.074;3.788;2023-02-15T10:38:48;11.90;99.90
27226;DHT22;14732;51.074;3.788;2023-02-15T10:47:13;11.90;99.90
27226;DHT22;14732;51.074;3.788;2023-02-15T10:50:23;12.20;99.90
27226;DHT22;14732;51.074;3.788;2023-02-15T11:04:23;11.70;99.90
27226;DHT22;14732;51.074;3.788;2023-02-15T11:06:56;11.90;99.90
27226;DHT22;14732;51.074;3.788;2023-02-15T11:09:28;12.00;99.90
27226;DHT22;14732;51.074;3.788;2023-02-15T11:11:56;12.10;99.90
27226;DHT22;14732;51.074;3.788;2023-02-15T11:17:51;12.20;99.90
27226;DHT22;14732;51.074;3.788;2023-02-15T11:20:37;12.60;99.90
27226;DHT22;14732;51.074;3.788;2023-02-15T11:23:13;12.70;99.90
27226;DHT22;14732;51.074;3.788;2023-02-15T11:25:44;12.70;99.90
27226;DHT22;14732;51.074;3.788;2023-02-15T11:28:34;12.80;99.90
27226;DHT22;14732;51.074;3.788;2023-02-15T11:31:24;12.60;99.90
27226;DHT22;14732;51.074;3.788;2023-02-15T11:33:58;12.60;99.90
27226;DHT22;14732;51.074;3.788;2023-02-15T11:36:28;12.70;99.90
27226;DHT22;14732;51.074;3.788;2023-02-15T11:39:01;12.80;99.90
27226;DHT22;14732;51.074;3.788;2023-02-15T11:41:34;12.80;99.90
27226;DHT22;14732;51.074;3.788;2023-02-15T11:44:06;13.00;99.90
27226;DHT22;14732;51.074;3.788;2023-02-15T11:46:32;12.90;99.90
27226;DHT22;14732;51.074;3.788;2023-02-15T11:48:58;12.50;99.90
27226;DHT22;14732;51.074;3.788;2023-02-15T11:51:24;12.50;99.90
27226;DHT22;14732;51.074;3.788;2023-02-15T11:53:52;12.60;99.90
27226;DHT22;14732;51.074;3.788;2023-02-15T11:56:25;12.70;99.90
27226;DHT22;14732;51.074;3.788;2023-02-15T11:59:05;13.10;99.90
27226;DHT22;14732;51.074;3.788;2023-02-15T12:01:42;13.10;99.90
27226;DHT22;14732;51.074;3.788;2023-02-15T12:07:15;13.20;99.90
27226;DHT22;14732;51.074;3.788;2023-02-15T12:10:00;13.30;99.90
27226;DHT22;14732;51.074;3.788;2023-02-15T12:12:31;13.50;99.90
27226;DHT22;14732;51.074;3.788;2023-02-15T12:15:00;13.40;99.90
27226;DHT22;14732;51.074;3.788;2023-02-15T12:17:52;13.60;99.90
27226;DHT22;14732;51.074;3.788;2023-02-15T12:22:53;14.10;99.90
27226;DHT22;14732;51.074;3.788;2023-02-15T12:25:27;14.00;99.90
27226;DHT22;14732;51.074;3.788;2023-02-15T12:27:54;13.70;99.90
27226;DHT22;14732;51.074;3.788;2023-02-15T12:35:32;13.80;99.90
27226;DHT22;14732;51.074;3.788;2023-02-15T12:40:38;13.70;99.90
27226;DHT22;14732;51.074;3.788;2023-02-15T12:43:29;13.90;99.90
27226;DHT22;14732;51.074;3.788;2023-02-15T12:46:20;14.00;99.90
27226;DHT22;14732;51.074;3.788;2023-02-15T12:48:46;13.80;99.90
27226;DHT22;14732;51.074;3.788;2023-02-15T12:51:14;13.90;99.90
27226;DHT22;14732;51.074;3.788;2023-02-15T12:53:41;14.10;99.90
27226;DHT22;14732;51.074;3.788;2023-02-15T12:56:09;14.40;99.90
27226;DHT22;14732;51.074;3.788;2023-02-15T12:58:40;14.50;99.90
27226;DHT22;14732;51.074;3.788;2023-02-15T13:06:21;14.30;99.90
27226;DHT22;14732;51.074;3.788;2023-02-15T13:08:53;14.00;99.90
27226;DHT22;14732;51.074;3.788;2023-02-15T13:11:27;13.60;99.90
27226;DHT22;14732;51.074;3.788;2023-02-15T13:14:00;13.90;99.90
27226;DHT22;14732;51.074;3.788;2023-02-15T13:18:57;14.40;99.90
27226;DHT22;14732;51.074;3.788;2023-02-15T13:21:31;14.50;99.90
27226;DHT22;14732;51.074;3.788;2023-02-15T13:24:02;14.50;99.90
27226;DHT22;14732;51.074;3.788;2023-02-15T13:26:31;14.30;99.90
27226;DHT22;14732;51.074;3.788;2023-02-15T13:29:05;14.20;99.90
27226;DHT22;14732;51.074;3.788;2023-02-15T13:31:34;14.20;99.90
27226;DHT22;14732;51.074;3.788;2023-02-15T13:34:10;14.20;99.90
27226;DHT22;14732;51.074;3.788;2023-02-15T13:36:53;13.70;99.90
27226;DHT22;14732;51.074;3.788;2023-02-15T13:42:14;13.90;99.90
27226;DHT22;14732;51.074;3.788;2023-02-15T13:47:55;14.50;99.90
27226;DHT22;14732;51.074;3.788;2023-02-15T13:50:56;14.50;99.90
27226;DHT22;14732;51.074;3.788;2023-02-15T13:56:27;14.20;99.90
27226;DHT22;14732;51.074;3.788;2023-02-15T14:00:11;14.00;99.90
27226;DHT22;14732;51.074;3.788;2023-02-15T14:11:44;14.00;99.90
27226;DHT22;14732;51.074;3.788;2023-02-15T14:14:26;14.00;99.90
27226;DHT22;14732;51.074;3.788;2023-02-15T14:22:36;14.00;99.90
27226;DHT22;14732;51.074;3.788;2023-02-15T14:25:17;13.90;99.90
27226;DHT22;14732;51.074;3.788;2023-02-15T14:30:33;14.30;99.90
27226;DHT22;14732;51.074;3.788;2023-02-15T14:33:19;14.30;99.90
27226;DHT22;14732;51.074;3.788;2023-02-15T14:35:50;14.10;99.90
27226;DHT22;14732;51.074;3.788;2023-02-15T14:49:26;13.60;99.90
27226;DHT22;14732;51.074;3.788;2023-02-15T14:52:02;13.60;99.90
27226;DHT22;14732;51.074;3.788;2023-02-15T15:04:41;13.60;99.90
27226;DHT22;14732;51.074;3.788;2023-02-15T15:09:39;13.60;99.90
27226;DHT22;14732;51.074;3.788;2023-02-15T15:15:05;13.30;99.90
27226;DHT22;14732;51.074;3.788;2023-02-15T15:19:59;13.40;99.90
27226;DHT22;14732;51.074;3.788;2023-02-15T15:22:30;13.40;99.90
27226;DHT22;14732;51.074;3.788;2023-02-15T15:25:04;13.20;99.90
27226;DHT22;14732;51.074;3.788;2023-02-15T15:27:54;13.10;99.90
27226;DHT22;14732;51.074;3.788;2023-02-15T15:32:57;13.00;99.90
27226;DHT22;14732;51.074;3.788;2023-02-15T15:41:43;13.30;99.90
27226;DHT22;14732;51.074;3.788;2023-02-15T15:49:43;13.20;99.90
27226;DHT22;14732;51.074;3.788;2023-02-15T15:52:19;13.10;99.90
27226;DHT22;14732;51.074;3.788;2023-02-15T15:54:53;13.00;99.90
27226;DHT22;14732;51.074;3.788;2023-02-15T15:59:51;12.70;99.90
27226;DHT22;14732;51.074;3.788;2023-02-15T16:02:17;12.80;99.90
27226;DHT22;14732;51.074;3.788;2023-02-15T16:04:44;12.60;99.90
27226;DHT22;14732;51.074;3.788;2023-02-15T16:12:20;12.80;99.90
27226;DHT22;14732;51.074;3.788;2023-02-15T16:14:46;12.90;99.90
27226;DHT22;14732;51.074;3.788;2023-02-15T16:17:22;12.80;99.90
27226;DHT22;14732;51.074;3.788;2023-02-15T16:19:48;12.70;99.90
27226;DHT22;14732;51.074;3.788;2023-02-15T16:22:25;12.70;99.90
27226;DHT22;14732;51.074;3.788;2023-02-15T16:25:00;12.50;99.90
27226;DHT22;14732;51.074;3.788;2023-02-15T16:27:43;12.30;99.90
27226;DHT22;14732;51.074;3.788;2023-02-15T16:32:46;11.90;99.90
27226;DHT22;14732;51.074;3.788;2023-02-15T16:35:17;12.10;99.90
27226;DHT22;14732;51.074;3.788;2023-02-15T16:37:44;12.30;99.90
27226;DHT22;14732;51.074;3.788;2023-02-15T16:40:27;12.20;99.90
27226;DHT22;14732;51.074;3.788;2023-02-15T16:43:05;12.10;99.90
27226;DHT22;14732;51.074;3.788;2023-02-15T16:45:35;12.40;99.90
27226;DHT22;14732;51.074;3.788;2023-02-15T16:48:07;12.10;99.90
27226;DHT22;14732;51.074;3.788;2023-02-15T16:50:37;11.90;99.90
27226;DHT22;14732;51.074;3.788;2023-02-15T16:53:05;11.90;99.90
27226;DHT22;14732;51.074;3.788;2023-02-15T16:55:42;12.00;99.90
27226;DHT22;14732;51.074;3.788;2023-02-15T16:58:14;11.70;99.90
27226;DHT22;14732;51.074;3.788;2023-02-15T17:00:41;11.70;99.90
27226;DHT22;14732;51.074;3.788;2023-02-15T17:05:50;11.70;99.90
27226;DHT22;14732;51.074;3.788;2023-02-15T17:08:41;11.80;99.90
27226;DHT22;14732;51.074;3.788;2023-02-15T17:11:15;12.00;99.90
27226;DHT22;14732;51.074;3.788;2023-02-15T17:16:31;11.90;99.90
27226;DHT22;14732;51.074;3.788;2023-02-15T17:19:03;11.80;99.90
27226;DHT22;14732;51.074;3.788;2023-02-15T17:21:39;11.70;99.90
27226;DHT22;14732;51.074;3.788;2023-02-15T17:24:19;11.60;99.90
27226;DHT22;14732;51.074;3.788;2023-02-15T17:26:50;11.60;99.90
27226;DHT22;14732;51.074;3.788;2023-02-15T17:29:26;11.60;99.90
27226;DHT22;14732;51.074;3.788;2023-02-15T17:31:55;11.60;99.90
27226;DHT22;14732;51.074;3.788;2023-02-15T17:37:12;11.50;99.90
27226;DHT22;14732;51.074;3.788;2023-02-15T17:39:38;11.40;99.90
27226;DHT22;14732;51.074;3.788;2023-02-15T17:42:06;11.40;99.90
27226;DHT22;14732;51.074;3.788;2023-02-15T17:44:32;11.30;99.90
27226;DHT22;14732;51.074;3.788;2023-02-15T17:46:58;11.30;99.90
27226;DHT22;14732;51.074;3.788;2023-02-15T17:49:25;11.20;99.90
27226;DHT22;14732;51.074;3.788;2023-02-15T17:51:53;11.10;99.90
27226;DHT22;14732;51.074;3.788;2023-02-15T17:54:19;11.00;99.90
27226;DHT22;14732;51.074;3.788;2023-02-15T17:57:11;11.00;99.90
27226;DHT22;14732;51.074;3.788;2023-02-15T17:59:37;10.90;99.90
27226;DHT22;14732;51.074;3.788;2023-02-15T18:02:21;10.70;99.90
27226;DHT22;14732;51.074;3.788;2023-02-15T18:05:12;10.60;99.90
27226;DHT22;14732;51.074;3.788;2023-02-15T18:07:57;10.50;99.90
27226;DHT22;14732;51.074;3.788;2023-02-15T18:10:41;10.60;99.90
27226;DHT22;14732;51.074;3.788;2023-02-15T18:13:25;10.80;99.90
27226;DHT22;14732;51.074;3.788;2023-02-15T18:15:51;10.80;99.90
27226;DHT22;14732;51.074;3.788;2023-02-15T18:18:16;10.80;99.90
27226;DHT22;14732;51.074;3.788;2023-02-15T18:20:42;10.80;99.90
27226;DHT22;14732;51.074;3.788;2023-02-15T18:23:13;10.70;99.90
27226;DHT22;14732;51.074;3.788;2023-02-15T18:25:40;10.70;99.90
27226;DHT22;14732;51.074;3.788;2023-02-15T18:28:07;10.90;99.90
27226;DHT22;14732;51.074;3.788;2023-02-15T18:30:35;10.80;99.90
27226;DHT22;14732;51.074;3.788;2023-02-15T18:33:02;10.60;99.90
27226;DHT22;14732;51.074;3.788;2023-02-15T18:35:30;10.60;99.90
27226;DHT22;14732;51.074;3.788;2023-02-15T18:37:58;10.60;99.90
27226;DHT22;14732;51.074;3.788;2023-02-15T18:40:26;10.70;99.90
27226;DHT22;14732;51.074;3.788;2023-02-15T18:42:53;10.60;99.90
27226;DHT22;14732;51.074;3.788;2023-02-15T18:45:26;10.50;99.90
27226;DHT22;14732;51.074;3.788;2023-02-15T18:47:57;10.50;99.90
27226;DHT22;14732;51.074;3.788;2023-02-15T18:50:23;10.60;99.90
27226;DHT22;14732;51.074;3.788;2023-02-15T18:52:51;10.60;99.90
27226;DHT22;14732;51.074;3.788;2023-02-15T18:55:25;10.50;99.90
27226;DHT22;14732;51.074;3.788;2023-02-15T18:57:54;10.40;99.90
27226;DHT22;14732;51.074;3.788;2023-02-15T19:00:29;10.50;99.90
27226;DHT22;14732;51.074;3.788;2023-02-15T19:02:55;10.40;99.90
27226;DHT22;14732;51.074;3.788;2023-02-15T19:05:22;10.20;99.90
27226;DHT22;14732;51.074;3.788;2023-02-15T19:07:48;10.00;99.90
27226;DHT22;14732;51.074;3.788;2023-02-15T19:10:23;10.10;99.90
27226;DHT22;14732;51.074;3.788;2023-02-15T19:12:49;10.10;99.90
27226;DHT22;14732;51.074;3.788;2023-02-15T19:15:18;9.90;99.90
27226;DHT22;14732;51.074;3.788;2023-02-15T19:17:44;9.70;99.90
27226;DHT22;14732;51.074;3.788;2023-02-15T19:20:21;9.60;99.90
27226;DHT22;14732;51.074;3.788;2023-02-15T19:22:49;9.50;99.90